Time;durP1;ratioP1;P1;durP2;ratioP2;P2;SDS_P1;SDS_P2;PMS_P1;PMS_P2;Temp;Humidity;BMP_temperature;BMP_pressure;BME280_temperature;BME280_humidity;BME280_pressure;Samples;Min_cycle;Max_cycle;Signal;HPM_P1;HPM_P2
2024/01/29 00:01:55;;;;;;;7.13;5.20;;;;;;;4.13;84.10;102500.22;4993275;28;20043;-74
2024/01/29 00:04:22;;;;;;;11.30;5.78;;;;;;;4.11;83.84;102507.72;4992564;28;20122;-74
2024/01/29 00:06:49;;;;;;;5.97;5.00;;;;;;;4.08;84.41;102500.50;4991630;28;20051;-74
2024/01/29 00:09:17;;;;;;;8.57;5.50;;;;;;;4.06;84.67;102504.59;4993210;28;20531;-74
2024/01/29 00:11:44;;;;;;;10.07;5.70;;;;;;;4.02;84.52;102486.09;4991556;28;20051;-74
2024/01/29 00:14:11;;;;;;;9.00;5.13;;;;;;;4.00;84.77;102488.31;4992382;28;20071;-74
2024/01/29 00:16:37;;;;;;;9.27;5.90;;;;;;;4.00;84.59;102488.31;4992100;28;20905;-74
2024/01/29 00:19:04;;;;;;;9.20;5.95;;;;;;;3.95;84.57;102494.69;4993325;28;20053;-74
2024/01/29 00:21:30;;;;;;;8.25;5.55;;;;;;;3.94;84.75;102492.38;4995402;28;20098;-74
2024/01/29 00:24:00;;;;;;;8.45;5.82;;;;;;;3.93;84.85;102502.16;4996524;28;20093;-74
2024/01/29 00:26:27;;;;;;;8.10;5.90;;;;;;;3.90;84.74;102492.31;4995205;28;20877;-74
2024/01/29 00:28:54;;;;;;;7.70;5.32;;;;;;;3.88;85.00;102493.78;4995917;28;20541;-73
2024/01/29 00:31:22;;;;;;;9.95;5.80;;;;;;;3.85;84.94;102486.59;4992425;28;20043;-74
2024/01/29 00:33:51;;;;;;;6.32;5.40;;;;;;;3.82;85.22;102482.78;4995964;28;20047;-73
2024/01/29 00:36:18;;;;;;;14.60;5.70;;;;;;;3.79;85.13;102480.06;4995896;28;20605;-73
2024/01/29 00:38:45;;;;;;;9.52;6.07;;;;;;;3.76;85.24;102478.91;4995330;28;20051;-74
2024/01/29 00:41:12;;;;;;;8.35;5.43;;;;;;;3.74;85.63;102483.00;4995324;28;20553;-74
2024/01/29 00:43:38;;;;;;;9.35;5.80;;;;;;;3.69;85.56;102482.16;4995485;28;20047;-74
2024/01/29 00:46:05;;;;;;;6.97;5.93;;;;;;;3.67;85.61;102487.03;4995874;28;20537;-74
2024/01/29 00:48:31;;;;;;;8.10;6.03;;;;;;;3.63;85.90;102478.28;4994633;28;20078;-73
2024/01/29 00:50:58;;;;;;;11.38;5.85;;;;;;;3.63;85.89;102477.53;4996482;28;20047;-73
2024/01/29 00:53:25;;;;;;;8.18;5.90;;;;;;;3.59;86.08;102469.59;4995391;28;20098;-74
2024/01/29 00:55:53;;;;;;;10.02;5.95;;;;;;;3.56;nan;102472.91;4995284;28;20070;-74
2024/01/29 00:58:20;;;;;;;7.40;5.65;;;;;;;3.54;86.20;102475.13;4994339;28;43116;-73
2024/01/29 01:00:48;;;;;;;8.80;5.72;;;;;;;3.52;86.47;102477.34;4995085;28;20043;-73
2024/01/29 01:03:14;;;;;;;8.30;6.22;;;;;;;3.47;86.59;102472.38;4995603;28;20054;-73
2024/01/29 01:05:41;;;;;;;7.40;5.63;;;;;;;3.47;86.73;102474.25;4994977;28;20114;-73
2024/01/29 01:08:08;;;;;;;7.80;5.72;;;;;;;3.45;86.74;102471.94;4995426;28;20078;-73
2024/01/29 01:10:34;;;;;;;8.35;5.68;;;;;;;3.43;87.07;102468.16;4995330;28;20051;-74
2024/01/29 01:13:01;;;;;;;9.02;6.13;;;;;;;3.45;87.37;102468.56;4995622;28;20047;-74
2024/01/29 01:15:28;;;;;;;7.85;6.45;;;;;;;3.45;87.29;102471.94;4994682;28;20122;-74
2024/01/29 01:17:56;;;;;;;10.05;6.60;;;;;;;3.45;87.51;102477.22;4992107;28;20047;-73
2024/01/29 01:20:24;;;;;;;7.47;6.20;;;;;;;3.47;87.71;102476.88;4994949;28;20046;-74
2024/01/29 01:22:50;;;;;;;9.98;6.13;;;;;;;3.50;87.63;102479.56;4996193;28;20487;-74
2024/01/29 01:25:17;;;;;;;7.97;6.35;;;;;;;3.50;87.65;102478.81;4995585;28;20053;-74
2024/01/29 01:27:44;;;;;;;9.02;6.22;;;;;;;3.48;87.95;102479.16;4994736;28;20047;-74
2024/01/29 01:30:11;;;;;;;8.38;5.97;;;;;;;3.47;87.90;102487.41;4994114;28;20058;-73
2024/01/29 01:32:37;;;;;;;11.00;6.65;;;;;;;3.47;87.86;102482.91;4995322;28;20368;-73
2024/01/29 01:35:04;;;;;;;9.30;5.88;;;;;;;3.44;88.13;102488.88;4994730;28;20126;-74
2024/01/29 01:37:31;;;;;;;8.88;6.20;;;;;;;3.44;88.19;102496.75;4991418;28;20134;-73
2024/01/29 01:39:58;;;;;;;7.97;5.88;;;;;;;3.42;88.24;102501.59;4995200;28;20058;-74
2024/01/29 01:42:25;;;;;;;9.85;6.40;;;;;;;3.38;88.28;102500.00;4994492;28;20555;-74
2024/01/29 01:44:52;;;;;;;9.95;6.38;;;;;;;3.31;88.52;102501.41;4993973;28;20055;-74
2024/01/29 01:47:19;;;;;;;8.85;6.47;;;;;;;3.29;88.79;102513.38;4994631;28;20047;-74
2024/01/29 01:49:46;;;;;;;6.40;5.53;;;;;;;3.25;88.89;102509.91;4994340;28;20484;-74
2024/01/29 01:52:15;;;;;;;10.90;5.97;;;;;;;3.18;89.04;102505.28;4995340;28;20133;-73
2024/01/29 01:54:43;;;;;;;7.72;5.85;;;;;;;3.15;89.23;102518.38;4994033;28;20043;-73
2024/01/29 01:57:10;;;;;;;7.82;6.38;;;;;;;3.11;89.29;102520.94;4994845;28;20090;-74
2024/01/29 01:59:38;;;;;;;8.85;6.00;;;;;;;3.09;89.75;102522.38;4994341;28;20055;-74
2024/01/29 02:02:07;;;;;;;11.10;6.30;;;;;;;3.07;90.05;102514.06;4994659;28;20050;-74
2024/01/29 02:04:34;;;;;;;7.93;5.95;;;;;;;3.05;90.18;102514.41;4991150;28;20054;-74
2024/01/29 02:07:01;;;;;;;11.63;6.30;;;;;;;3.01;90.08;102516.97;4994790;28;20585;-74
2024/01/29 02:09:28;;;;;;;16.92;6.57;;;;;;;2.99;90.18;102515.78;4993603;28;20082;-74
2024/01/29 02:11:55;;;;;;;10.38;6.22;;;;;;;2.96;90.42;102514.59;4994095;28;20053;-73
2024/01/29 02:14:21;;;;;;;13.68;7.00;;;;;;;2.95;90.53;102520.97;4993841;28;20430;-74
2024/01/29 02:16:48;;;;;;;10.02;6.68;;;;;;;2.93;90.76;102520.53;4994426;28;20526;-74
2024/01/29 02:19:16;;;;;;;9.55;6.60;;;;;;;2.90;90.78;102515.97;4994234;28;20046;-74
2024/01/29 02:21:44;;;;;;;8.98;6.47;;;;;;;2.89;90.93;102524.97;4994131;28;20053;-74
2024/01/29 02:24:10;;;;;;;9.45;7.13;;;;;;;2.87;91.07;102519.28;4993556;28;20133;-74
2024/01/29 02:26:37;;;;;;;7.53;6.63;;;;;;;2.85;91.30;102526.00;4994243;28;20051;-74
2024/01/29 02:29:04;;;;;;;9.40;6.50;;;;;;;2.84;91.42;102527.84;4994652;28;20151;-74
2024/01/29 02:31:30;;;;;;;11.07;7.25;;;;;;;2.82;91.43;102509.03;4993561;28;20047;-74
2024/01/29 02:33:57;;;;;;;14.70;6.63;;;;;;;2.79;91.46;102515.00;4994577;28;20050;-74
2024/01/29 02:36:23;;;;;;;8.80;6.35;;;;;;;2.76;91.51;102512.28;4993812;28;20054;-74
2024/01/29 02:38:50;;;;;;;10.13;6.95;;;;;;;2.74;91.87;102510.00;4993414;28;20053;-74
2024/01/29 02:41:19;;;;;;;10.80;7.65;;;;;;;2.73;92.06;102512.97;4993521;28;20868;-74
2024/01/29 02:43:45;;;;;;;9.13;5.75;;;;;;;2.69;91.98;102512.88;4993875;28;20061;-73
2024/01/29 02:46:12;;;;;;;11.77;6.47;;;;;;;2.66;92.05;102524.09;4993617;28;20577;-74
2024/01/29 02:48:39;;;;;;;9.57;7.15;;;;;;;2.62;92.05;102513.47;4993846;28;20082;-74
2024/01/29 02:51:06;;;;;;;7.95;6.15;;;;;;;2.60;92.30;102514.94;4994235;28;20133;-73
2024/01/29 02:53:33;;;;;;;10.10;6.50;;;;;;;2.56;92.47;102500.94;4992713;28;20090;-74
2024/01/29 02:56:00;;;;;;;9.90;6.65;;;;;;;2.53;92.71;102504.25;4994380;28;20062;-74
2024/01/29 02:58:26;;;;;;;14.63;6.88;;;;;;;2.50;92.69;102499.66;4993842;28;20126;-74
2024/01/29 03:00:53;;;;;;;8.60;6.80;;;;;;;2.47;92.91;102506.38;4993708;28;20049;-73
2024/01/29 03:03:20;;;;;;;11.43;7.10;;;;;;;2.45;93.09;102513.06;4993337;28;20063;-73
2024/01/29 03:05:47;;;;;;;9.77;6.38;;;;;;;2.42;93.25;102516.38;4994108;28;20074;-74
2024/01/29 03:08:13;;;;;;;8.93;6.38;;;;;;;2.38;93.54;102524.19;4993322;28;20046;-73
2024/01/29 03:10:40;;;;;;;7.35;6.32;;;;;;;2.35;93.69;102519.63;4993423;28;20088;-73
2024/01/29 03:13:07;;;;;;;8.27;6.78;;;;;;;2.32;93.67;102515.78;4992500;28;20111;-73
2024/01/29 03:15:33;;;;;;;13.57;6.93;;;;;;;2.29;93.81;102518.34;4993484;28;20133;-73
2024/01/29 03:18:00;;;;;;;7.72;6.57;;;;;;;2.26;93.60;102519.00;4993450;28;20050;-74
2024/01/29 03:20:27;;;;;;;10.32;6.60;;;;;;;2.24;93.97;102515.97;4992833;28;20035;-74
2024/01/29 03:22:53;;;;;;;7.10;5.72;;;;;;;2.22;94.25;102529.44;4993137;28;20822;-74
2024/01/29 03:25:20;;;;;;;9.70;6.60;;;;;;;2.19;94.30;102524.09;4992919;28;20167;-74
2024/01/29 03:27:46;;;;;;;9.20;6.75;;;;;;;2.15;94.33;102524.00;4993009;28;20050;-74
2024/01/29 03:30:13;;;;;;;9.75;6.30;;;;;;;2.11;94.38;102517.91;4993074;28;20117;-74
2024/01/29 03:32:40;;;;;;;9.10;6.50;;;;;;;2.10;94.66;102515.59;4991519;28;20054;-74
2024/01/29 03:35:08;;;;;;;8.20;6.65;;;;;;;2.08;94.49;102523.06;4993230;28;20125;-74
2024/01/29 03:37:35;;;;;;;9.15;6.60;;;;;;;2.06;94.80;102520.75;4992924;28;20603;-73
2024/01/29 03:40:04;;;;;;;11.05;6.90;;;;;;;2.03;95.02;102529.31;4993623;28;20587;-74
2024/01/29 03:42:31;;;;;;;9.77;6.25;;;;;;;2.01;95.36;102528.88;4992643;28;20553;-74
2024/01/29 03:44:58;;;;;;;8.02;5.80;;;;;;;1.98;95.35;102529.59;4993601;28;20058;-74
2024/01/29 03:47:24;;;;;;;8.82;6.32;;;;;;;1.96;95.56;102532.56;4993234;28;20043;-73
2024/01/29 03:49:51;;;;;;;11.15;6.78;;;;;;;1.93;95.90;102527.97;4992199;28;20053;-74
2024/01/29 03:52:18;;;;;;;10.48;6.78;;;;;;;1.90;95.79;102527.88;4992822;28;20074;-73
2024/01/29 03:54:45;;;;;;;13.48;7.20;;;;;;;1.89;96.17;102537.63;4991641;28;20514;-74
2024/01/29 03:57:11;;;;;;;9.60;7.07;;;;;;;1.85;96.19;102534.13;4992555;28;20050;-74
2024/01/29 03:59:38;;;;;;;7.97;5.90;;;;;;;1.84;96.59;102543.09;4993043;28;20051;-74
2024/01/29 04:02:04;;;;;;;8.50;6.72;;;;;;;1.85;96.68;102538.63;4992675;28;20050;-74
2024/01/29 04:04:31;;;;;;;10.80;6.57;;;;;;;1.82;96.78;102536.66;4991868;28;20055;-73
2024/01/29 04:06:58;;;;;;;9.10;6.22;;;;;;;1.79;97.28;102539.97;4992772;28;20047;-73
2024/01/29 04:09:25;;;;;;;9.75;6.95;;;;;;;1.78;97.35;102538.44;4992460;28;20419;-73
2024/01/29 04:11:52;;;;;;;11.65;6.63;;;;;;;1.76;97.69;102538.00;4992202;28;20062;-74
2024/01/29 04:14:18;;;;;;;11.95;6.65;;;;;;;1.75;97.74;102537.22;4992767;28;20051;-74
2024/01/29 04:16:49;;;;;;;8.77;6.60;;;;;;;1.74;98.01;102538.34;4992970;28;20138;-73
2024/01/29 04:19:15;;;;;;;8.90;6.47;;;;;;;1.73;98.22;102531.56;4989100;28;20042;-73
2024/01/29 04:21:42;;;;;;;12.10;6.90;;;;;;;1.73;98.69;102526.31;4992725;28;20062;-73
2024/01/29 04:24:12;;;;;;;9.13;6.85;;;;;;;1.75;98.73;102524.09;4992427;28;20051;-74
2024/01/29 04:26:41;;;;;;;7.07;5.88;;;;;;;1.80;99.35;102520.47;4992283;28;20532;-74
2024/01/29 04:29:08;;;;;;;11.90;6.80;;;;;;;1.84;99.32;102523.97;4992830;28;20055;-73
2024/01/29 04:31:35;;;;;;;8.88;6.30;;;;;;;1.87;99.44;102512.78;4991932;28;20097;-74
2024/01/29 04:34:03;;;;;;;13.57;6.60;;;;;;;1.89;99.48;102510.59;4993390;28;20053;-74
2024/01/29 04:36:30;;;;;;;8.70;6.55;;;;;;;1.90;99.46;102509.50;4992146;28;20768;-74
2024/01/29 04:38:58;;;;;;;8.43;6.50;;;;;;;1.91;99.68;102506.53;4993496;28;20055;-74
2024/01/29 04:41:25;;;;;;;9.73;6.60;;;;;;;1.92;99.42;102515.16;4992187;28;20078;-74
2024/01/29 04:43:51;;;;;;;12.07;7.05;;;;;;;1.93;99.59;102514.06;4992481;28;20581;-74
2024/01/29 04:46:18;;;;;;;9.05;6.65;;;;;;;1.95;99.78;102509.25;4989392;28;20047;-74
2024/01/29 04:48:44;;;;;;;8.98;6.78;;;;;;;1.95;100.00;102510.00;4992317;28;20043;-74
2024/01/29 04:51:11;;;;;;;8.27;6.65;;;;;;;1.96;99.77;102519.41;4991983;28;20039;-74
2024/01/29 04:53:39;;;;;;;8.95;6.38;;;;;;;1.96;99.78;102527.28;4992076;28;20094;-74
2024/01/29 04:56:06;;;;;;;8.20;6.53;;;;;;;1.94;99.78;102516.38;4992512;28;20075;-74
2024/01/29 04:58:33;;;;;;;10.50;6.78;;;;;;;1.92;99.94;102510.69;4991856;28;20502;-74
2024/01/29 05:00:59;;;;;;;8.75;7.28;;;;;;;1.93;100.00;102508.81;4992148;28;20883;-74
2024/01/29 05:03:26;;;;;;;12.05;7.07;;;;;;;1.94;100.00;102502.47;4992118;28;20047;-74
2024/01/29 05:05:53;;;;;;;9.98;7.38;;;;;;;1.95;100.00;102499.50;4994104;28;20042;-74
2024/01/29 05:08:20;;;;;;;15.10;6.60;;;;;;;1.96;100.00;102500.28;4991550;28;20070;-74
2024/01/29 05:10:47;;;;;;;9.38;6.55;;;;;;;1.95;100.00;102494.25;4995898;28;20058;-74
2024/01/29 05:13:15;;;;;;;11.38;6.78;;;;;;;1.95;100.00;102496.88;4994667;28;20122;-74
2024/01/29 05:15:41;;;;;;;11.68;6.88;;;;;;;1.96;100.00;102492.38;4995832;28;20085;-74
2024/01/29 05:18:08;;;;;;;9.20;7.00;;;;;;;1.95;100.00;102501.38;4995720;28;20343;-74
2024/01/29 05:20:35;;;;;;;8.85;7.20;;;;;;;1.92;100.00;102489.66;4994356;28;20562;-76
2024/01/29 05:23:02;;;;;;;10.65;6.57;;;;;;;1.93;100.00;102500.94;4995778;28;20053;-76
2024/01/29 05:25:29;;;;;;;10.43;6.80;;;;;;;1.91;100.00;102500.50;4995021;28;20098;-75
2024/01/29 05:27:55;;;;;;;8.05;6.38;;;;;;;1.90;100.00;102510.25;4995144;28;20517;-75
2024/01/29 05:30:22;;;;;;;8.57;6.43;;;;;;;1.89;100.00;102511.34;4976360;28;20075;-75
2024/01/29 05:32:49;;;;;;;9.15;6.45;;;;;;;1.89;100.00;102521.84;4995471;28;20054;-75
2024/01/29 05:35:16;;;;;;;10.68;6.78;;;;;;;1.88;100.00;102509.06;4994909;28;20053;-75
2024/01/29 05:37:42;;;;;;;10.95;7.25;;;;;;;1.88;100.00;102520.34;4994198;28;20054;-75
2024/01/29 05:40:11;;;;;;;12.25;6.60;;;;;;;1.87;100.00;102520.66;4995410;28;20042;-75
2024/01/29 05:42:38;;;;;;;7.60;6.18;;;;;;;1.88;100.00;102504.56;4994880;28;20545;-75
2024/01/29 05:45:05;;;;;;;10.05;6.28;;;;;;;1.90;100.00;102510.25;4995416;28;20047;-75
2024/01/29 05:47:33;;;;;;;9.68;6.97;;;;;;;1.93;100.00;102516.69;4994008;28;20043;-75
2024/01/29 05:50:01;;;;;;;9.75;7.13;;;;;;;1.94;100.00;102510.34;4995575;28;20130;-76
2024/01/29 05:52:28;;;;;;;11.70;6.50;;;;;;;1.96;100.00;102523.91;4991454;28;20122;-76
2024/01/29 05:54:54;;;;;;;12.18;7.03;;;;;;;1.96;100.00;102521.28;4994169;28;20042;-76
2024/01/29 05:57:21;;;;;;;7.10;6.40;;;;;;;1.97;100.00;102520.19;4995176;28;20043;-76
2024/01/29 05:59:48;;;;;;;8.07;6.38;;;;;;;1.99;100.00;102531.13;4995316;28;20042;-74
2024/01/29 06:02:14;;;;;;;7.78;6.63;;;;;;;1.97;100.00;102530.69;4994058;28;20167;-76
2024/01/29 06:04:41;;;;;;;10.27;6.25;;;;;;;1.96;100.00;102522.03;4993862;28;20053;-76
2024/01/29 06:07:08;;;;;;;10.55;6.53;;;;;;;1.99;100.00;102528.50;4995457;28;20046;-76
2024/01/29 06:09:35;;;;;;;7.82;6.22;;;;;;;1.99;100.00;102529.25;4994052;28;20051;-75
2024/01/29 06:12:01;;;;;;;11.15;7.07;;;;;;;2.02;100.00;102530.41;4994507;28;20374;-75
2024/01/29 06:14:28;;;;;;;8.38;6.97;;;;;;;2.01;100.00;102529.66;4990403;28;20719;-74
2024/01/29 06:16:56;;;;;;;10.32;7.13;;;;;;;2.03;100.00;102525.94;4993763;28;20042;-75
2024/01/29 06:19:23;;;;;;;9.65;7.50;;;;;;;2.06;100.00;102535.75;4993629;28;20125;-73
2024/01/29 06:21:50;;;;;;;9.45;6.47;;;;;;;2.07;100.00;102535.44;4993674;28;20047;-74
2024/01/29 06:24:17;;;;;;;7.43;6.63;;;;;;;2.09;100.00;102541.09;4994907;28;20069;-73
2024/01/29 06:26:43;;;;;;;8.25;6.53;;;;;;;2.11;100.00;102540.78;4993504;28;20050;-74
2024/01/29 06:29:14;;;;;;;13.45;6.25;;;;;;;2.11;100.00;102536.28;4994260;28;20050;-74
2024/01/29 06:31:41;;;;;;;9.38;7.05;;;;;;;2.14;100.00;102548.75;4994954;28;20046;-74
2024/01/29 06:34:07;;;;;;;10.07;6.95;;;;;;;2.13;100.00;102547.22;4993899;28;20126;-74
2024/01/29 06:36:34;;;;;;;9.63;7.07;;;;;;;2.15;100.00;102549.50;4993882;28;20118;-74
2024/01/29 06:39:01;;;;;;;10.77;7.75;;;;;;;2.15;100.00;102552.13;4994247;28;20043;-74
2024/01/29 06:41:27;;;;;;;10.98;7.00;;;;;;;2.15;100.00;102554.78;4994050;28;20561;-75
2024/01/29 06:43:54;;;;;;;8.50;6.75;;;;;;;2.14;100.00;102558.50;4994649;28;20506;-75
2024/01/29 06:46:21;;;;;;;9.93;7.45;;;;;;;2.14;100.00;102559.25;4993748;28;20548;-75
2024/01/29 06:48:48;;;;;;;7.47;6.55;;;;;;;2.16;100.00;102554.44;4994258;28;20042;-74
2024/01/29 06:51:17;;;;;;;10.93;6.60;;;;;;;2.17;100.00;102552.56;4994019;28;20043;-76
2024/01/29 06:53:44;;;;;;;8.60;6.60;;;;;;;2.16;100.00;102564.94;4993908;28;20050;-74
2024/01/29 06:56:10;;;;;;;11.60;6.78;;;;;;;2.16;100.00;102559.69;4993506;28;20175;-74
2024/01/29 06:58:37;;;;;;;12.48;6.55;;;;;;;2.17;100.00;102558.59;4994181;28;20046;-74
2024/01/29 07:01:05;;;;;;;13.65;6.90;;;;;;;2.18;100.00;102562.75;4992841;28;20137;-74
2024/01/29 07:03:32;;;;;;;10.00;6.68;;;;;;;2.18;100.00;102572.50;4993396;28;20047;-74
2024/01/29 07:05:59;;;;;;;7.82;6.25;;;;;;;2.18;100.00;102567.22;4993755;28;20045;-74
2024/01/29 07:08:26;;;;;;;12.38;6.78;;;;;;;2.20;100.00;102568.44;4993668;28;20051;-74
2024/01/29 07:10:52;;;;;;;9.80;6.60;;;;;;;2.23;100.00;102564.38;4992968;28;20082;-74
2024/01/29 07:13:19;;;;;;;9.45;6.95;;;;;;;2.25;100.00;102562.16;4993020;28;20055;-74
2024/01/29 07:15:45;;;;;;;8.65;6.55;;;;;;;2.25;100.00;102568.19;4992998;28;20051;-75
2024/01/29 07:18:12;;;;;;;8.68;6.82;;;;;;;2.28;100.00;102572.00;4993624;28;20073;-74
2024/01/29 07:20:41;;;;;;;11.20;7.40;;;;;;;2.25;100.00;102565.56;4993985;28;20500;-74
2024/01/29 07:23:08;;;;;;;11.27;7.45;;;;;;;2.26;100.00;102567.09;4989770;28;20047;-74
2024/01/29 07:25:35;;;;;;;8.35;6.57;;;;;;;2.27;100.00;102573.09;4992874;28;20129;-74
2024/01/29 07:28:04;;;;;;;8.65;6.55;;;;;;;2.28;100.00;102572.00;4992603;28;20043;-75
2024/01/29 07:30:31;;;;;;;10.45;6.45;;;;;;;2.30;100.00;102580.31;4993026;28;20096;-75
2024/01/29 07:32:59;;;;;;;8.23;6.35;;;;;;;2.32;100.00;102594.66;4992856;28;20047;-74
2024/01/29 07:35:26;;;;;;;8.65;6.35;;;;;;;2.33;100.00;102596.19;4993062;28;20046;-75
2024/01/29 07:37:53;;;;;;;9.05;6.32;;;;;;;2.34;100.00;102607.44;4993028;28;20514;-74
2024/01/29 07:40:20;;;;;;;9.50;6.65;;;;;;;2.33;100.00;102611.94;4975774;28;20054;-74
2024/01/29 07:42:47;;;;;;;8.40;6.93;;;;;;;2.36;100.00;102610.50;4976417;28;20049;-74
2024/01/29 07:45:14;;;;;;;7.22;6.53;;;;;;;2.38;100.00;102613.56;4975214;28;20082;-74
2024/01/29 07:47:41;;;;;;;7.80;6.30;;;;;;;2.40;100.00;102611.34;4990210;28;20928;-74
2024/01/29 07:50:08;;;;;;;12.68;6.82;;;;;;;2.45;100.00;102611.09;4975810;28;20051;-76
2024/01/29 07:52:36;;;;;;;9.82;7.30;;;;;;;2.48;100.00;102620.16;4992806;28;20051;-74
2024/01/29 07:55:03;;;;;;;12.18;6.22;;;;;;;2.49;100.00;102609.31;4993690;28;20053;-74
2024/01/29 07:57:29;;;;;;;9.40;6.43;;;;;;;2.53;100.00;102607.53;4993087;28;20051;-74
2024/01/29 07:59:57;;;;;;;8.50;6.20;;;;;;;2.55;100.00;102605.34;4992647;28;20051;-77
2024/01/29 08:02:23;;;;;;;7.90;6.68;;;;;;;2.59;100.00;102613.31;4992755;28;20049;-75
2024/01/29 08:04:50;;;;;;;14.75;6.93;;;;;;;2.62;100.00;102604.75;4993014;28;20058;-76
2024/01/29 08:07:17;;;;;;;11.75;6.65;;;;;;;2.67;100.00;102601.88;4992696;28;20566;-77
2024/01/29 08:09:45;;;;;;;8.65;6.80;;;;;;;2.74;100.00;102604.69;4974583;28;20046;-77
2024/01/29 08:12:12;;;;;;;10.90;6.57;;;;;;;2.83;100.00;102615.00;4993283;28;20084;-76
2024/01/29 08:14:38;;;;;;;10.80;6.38;;;;;;;2.88;100.00;102620.00;4993625;28;20113;-77
2024/01/29 08:17:06;;;;;;;9.52;6.97;;;;;;;2.91;100.00;102627.22;4993470;28;20093;-77
2024/01/29 08:19:33;;;;;;;12.35;7.05;;;;;;;2.95;100.00;102618.31;4993179;28;20051;-77
2024/01/29 08:22:00;;;;;;;11.07;6.88;;;;;;;2.97;100.00;102624.00;4975178;28;20900;-77
2024/01/29 08:24:26;;;;;;;7.43;6.47;;;;;;;3.00;100.00;102620.69;4992381;28;20054;-76
2024/01/29 08:26:53;;;;;;;10.57;7.43;;;;;;;3.05;100.00;102616.25;4993117;28;20049;-76
2024/01/29 08:29:20;;;;;;;10.00;7.22;;;;;;;3.09;100.00;102614.47;4993140;28;20054;-76
2024/01/29 08:31:48;;;;;;;8.20;6.60;;;;;;;3.14;100.00;102616.84;4992142;28;20091;-76
2024/01/29 08:34:14;;;;;;;12.95;7.10;;;;;;;3.17;100.00;102609.03;4975553;28;20097;-77
2024/01/29 08:36:41;;;;;;;9.02;6.10;;;;;;;3.22;100.00;102619.28;4992379;28;20440;-77
2024/01/29 08:39:08;;;;;;;11.27;7.05;;;;;;;3.26;100.00;102624.63;4991671;28;20051;-77
2024/01/29 08:41:34;;;;;;;10.52;7.10;;;;;;;3.30;100.00;102612.31;4995501;28;20042;-77
2024/01/29 08:44:03;;;;;;;11.50;7.03;;;;;;;3.35;100.00;102612.03;4996536;28;20038;-77
2024/01/29 08:46:29;;;;;;;7.95;6.85;;;;;;;3.41;100.00;102615.16;4978301;28;20047;-77
2024/01/29 08:48:56;;;;;;;9.90;7.10;;;;;;;3.45;100.00;102610.75;4978640;28;20622;-77
2024/01/29 08:51:23;;;;;;;7.32;6.25;;;;;;;3.51;100.00;102604.09;4995505;28;20049;-77
2024/01/29 08:53:50;;;;;;;8.50;6.90;;;;;;;3.57;100.00;102608.75;4992968;28;20046;-77
2024/01/29 08:56:17;;;;;;;8.57;6.82;;;;;;;3.62;100.00;102615.59;4977541;28;20106;-77
2024/01/29 08:58:44;;;;;;;11.90;6.55;;;;;;;3.65;100.00;102610.41;4996034;28;20043;-77
2024/01/29 09:01:11;;;;;;;15.13;7.65;;;;;;;3.71;100.00;102625.94;4995854;28;20053;-77
2024/01/29 09:03:37;;;;;;;10.57;7.10;;;;;;;3.75;100.00;102624.91;4997756;28;20573;-78
2024/01/29 09:06:08;;;;;;;8.98;6.95;;;;;;;3.79;100.00;102622.34;5004367;28;20869;-78
2024/01/29 09:08:36;;;;;;;8.52;6.47;;;;;;;3.84;100.00;102625.47;5009316;28;20063;-78
2024/01/29 09:11:03;;;;;;;7.07;6.38;;;;;;;3.89;100.00;102622.53;5007595;28;20059;-78
2024/01/29 09:13:29;;;;;;;10.55;7.20;;;;;;;3.96;100.00;102627.97;5001778;28;20134;-78
2024/01/29 09:15:56;;;;;;;11.02;7.30;;;;;;;4.02;100.00;102634.44;4996762;28;20069;-77
2024/01/29 09:18:23;;;;;;;9.32;7.05;;;;;;;4.07;100.00;102643.94;4977332;28;20053;-78
2024/01/29 09:20:50;;;;;;;11.45;7.45;;;;;;;4.12;100.00;102648.94;4997516;28;20039;-78
2024/01/29 09:23:16;;;;;;;9.68;7.07;;;;;;;4.18;100.00;102646.78;4997472;28;20392;-78
2024/01/29 09:25:43;;;;;;;12.20;7.38;;;;;;;4.21;100.00;102641.59;4995845;28;20058;-78
2024/01/29 09:28:09;;;;;;;12.13;7.55;;;;;;;4.25;100.00;102639.00;4997190;28;20846;-78
2024/01/29 09:30:36;;;;;;;10.05;7.05;;;;;;;4.29;100.00;102635.34;4997116;28;20047;-78
2024/01/29 09:33:03;;;;;;;10.25;8.02;;;;;;;4.33;100.00;102641.44;4979231;28;20506;-78
2024/01/29 09:35:44;;;;;;;12.70;7.45;;;;;;;4.37;100.00;102646.78;4981239;28;20137;-77
2024/01/29 09:38:10;;;;;;;14.82;8.02;;;;;;;4.40;100.00;102637.41;4996937;28;20050;-77
2024/01/29 09:40:37;;;;;;;10.68;8.10;;;;;;;4.43;100.00;102640.06;4996055;28;20043;-78
2024/01/29 09:43:07;;;;;;;11.43;8.27;;;;;;;4.47;100.00;102637.50;4981354;28;20497;-79
2024/01/29 09:45:35;;;;;;;11.63;7.65;;;;;;;4.52;100.00;102640.63;5002882;28;20070;-79
2024/01/29 09:48:05;;;;;;;12.18;7.13;;;;;;;4.58;100.00;102638.44;4987008;28;20071;-78
2024/01/29 09:50:36;;;;;;;10.82;7.70;;;;;;;4.63;100.00;102638.16;4983665;28;20126;-78
2024/01/29 09:53:04;;;;;;;9.87;7.93;;;;;;;4.71;100.00;102642.44;4988960;28;20043;-78
2024/01/29 09:55:31;;;;;;;11.43;8.43;;;;;;;4.78;100.00;102641.81;4996376;28;20129;-78
2024/01/29 09:57:57;;;;;;;12.07;7.85;;;;;;;4.82;100.00;102640.72;4994284;28;20050;-78
2024/01/29 10:00:24;;;;;;;9.70;7.82;;;;;;;4.87;100.00;102642.28;4992227;28;20078;-77
2024/01/29 10:02:53;;;;;;;11.45;8.35;;;;;;;4.96;100.00;102643.59;5001353;28;20038;-77
2024/01/29 10:05:20;;;;;;;11.95;8.38;;;;;;;5.04;100.00;102652.38;4997210;28;20090;-74
2024/01/29 10:07:49;;;;;;;9.93;7.93;;;;;;;5.11;100.00;102651.72;4995423;28;20121;-74
2024/01/29 10:10:16;;;;;;;10.80;8.23;;;;;;;5.19;100.00;102656.00;4995874;28;20057;-73
2024/01/29 10:12:43;;;;;;;12.18;8.27;;;;;;;5.25;100.00;102655.31;4992951;28;20054;-73
2024/01/29 10:15:12;;;;;;;13.25;8.20;;;;;;;5.30;100.00;102656.88;4994964;28;20046;-72
2024/01/29 10:17:39;;;;;;;14.85;8.68;;;;;;;5.36;100.00;102666.03;4993104;28;20049;-72
2024/01/29 10:20:20;;;;;;;14.75;8.35;;;;;;;5.44;100.00;102666.91;4994919;28;20117;-72
2024/01/29 10:22:48;;;;;;;12.15;8.80;;;;;;;5.54;100.00;102661.00;4994016;28;20848;-72
2024/01/29 10:25:15;;;;;;;13.10;8.43;;;;;;;5.63;100.00;102666.75;4993333;28;20058;-74
2024/01/29 10:27:45;;;;;;;11.82;8.48;;;;;;;5.74;100.00;102661.59;4992790;28;20414;-75
2024/01/29 10:30:13;;;;;;;13.52;8.38;;;;;;;5.87;100.00;102673.47;4991743;28;20458;-74
2024/01/29 10:32:40;;;;;;;16.98;8.57;;;;;;;5.98;99.95;102671.75;4993749;28;20141;-74
2024/01/29 10:35:06;;;;;;;15.10;7.97;;;;;;;6.08;99.31;102679.03;4993433;28;20042;-74
2024/01/29 10:37:33;;;;;;;11.45;8.50;;;;;;;6.18;98.81;102685.56;4989486;28;20530;-74
2024/01/29 10:40:02;;;;;;;12.30;9.15;;;;;;;6.26;98.78;102687.16;4993562;28;20438;-73
2024/01/29 10:42:29;;;;;;;15.18;9.10;;;;;;;6.33;98.47;102687.25;4993172;28;20086;-74
2024/01/29 10:44:59;;;;;;;12.50;8.77;;;;;;;6.39;98.20;102691.09;4992945;28;20062;-73
2024/01/29 10:47:33;;;;;;;12.57;8.43;;;;;;;6.46;97.98;102693.03;4993475;28;20057;-74
2024/01/29 10:50:01;;;;;;;13.88;9.15;;;;;;;6.55;97.83;102688.19;4994256;28;20571;-75
2024/01/29 10:52:29;;;;;;;11.02;8.52;;;;;;;6.63;97.55;102687.16;4993040;28;20055;-74
2024/01/29 10:54:57;;;;;;;12.63;9.38;;;;;;;6.72;97.39;102681.56;4993736;28;20129;-74
2024/01/29 10:57:25;;;;;;;15.88;9.40;;;;;;;6.82;97.34;102686.16;4992462;28;20601;-74
2024/01/29 10:59:51;;;;;;;16.52;9.32;;;;;;;6.89;96.89;102668.44;4993423;28;20434;-75
2024/01/29 11:02:19;;;;;;;11.13;8.10;;;;;;;6.99;96.65;102678.38;4992955;28;20125;-74
2024/01/29 11:04:46;;;;;;;15.38;9.45;;;;;;;7.02;96.46;102682.16;4993182;28;20050;-74
2024/01/29 11:07:18;;;;;;;12.32;9.15;;;;;;;7.02;96.47;102684.81;4992526;28;20537;-74
2024/01/29 11:10:09;;;;;;;12.07;9.10;;;;;;;7.11;96.67;102684.50;4992657;28;20047;-74
2024/01/29 11:12:38;;;;;;;11.30;9.40;;;;;;;7.23;96.71;102678.91;4956451;28;1052596;-75
2024/01/29 11:15:06;;;;;;;14.10;9.32;;;;;;;7.31;96.04;102678.56;4994074;28;20491;-75
2024/01/29 11:17:33;;;;;;;16.40;10.05;;;;;;;7.36;95.93;102677.47;4994829;28;20523;-75
2024/01/29 11:20:02;;;;;;;11.95;10.02;;;;;;;7.40;95.87;102677.50;4977007;28;20525;-74
2024/01/29 11:22:36;;;;;;;16.23;9.32;;;;;;;7.44;95.85;102675.63;4993857;28;20043;-73
2024/01/29 11:25:14;;;;;;;13.07;9.88;;;;;;;7.47;96.00;102677.53;4993806;28;20050;-73
2024/01/29 11:27:48;;;;;;;13.52;9.43;;;;;;;7.51;96.30;102679.06;4991012;28;20050;-73